createdAt,value
2018-10-21T00:00:00.190Z,99.99
2018-10-21T00:01:00.773Z,99.99
2018-10-21T00:02:01.381Z,99.99
2018-10-21T00:03:02.017Z,99.99
2018-10-21T00:04:02.578Z,99.99
2018-10-21T00:05:03.154Z,99.99
2018-10-21T00:06:03.728Z,99.99
2018-10-21T00:07:04.305Z,99.99
2018-10-21T00:08:04.877Z,99.99
2018-10-21T00:09:05.543Z,99.99
2018-10-21T00:10:06.077Z,99.99
2018-10-21T00:11:06.699Z,99.99
2018-10-21T00:12:07.272Z,99.99
2018-10-21T00:13:07.897Z,99.99
2018-10-21T00:14:08.472Z,99.99
2018-10-21T00:15:09.081Z,99.99
2018-10-21T00:16:09.656Z,99.99
2018-10-21T00:17:10.232Z,99.99
2018-10-21T00:18:10.811Z,99.99
2018-10-21T00:19:11.382Z,99.99
2018-10-21T00:20:11.956Z,99.99
2018-10-21T00:21:12.637Z,99.99
2018-10-21T00:22:13.147Z,99.99
2018-10-21T00:23:13.720Z,99.99
2018-10-21T00:24:14.294Z,99.99
2018-10-21T00:25:14.878Z,99.99
2018-10-21T00:26:15.685Z,99.99
2018-10-21T00:27:16.396Z,99.99
2018-10-21T00:28:16.834Z,99.99
2018-10-21T00:29:17.456Z,99.99
2018-10-21T00:30:18.029Z,99.99
2018-10-21T00:31:18.604Z,99.99
2018-10-21T00:32:19.228Z,99.99
2018-10-21T00:33:19.802Z,99.99
2018-10-21T00:34:20.377Z,99.99
2018-10-21T00:35:20.950Z,99.99
2018-10-21T00:36:21.525Z,99.99
2018-10-21T00:37:22.099Z,99.99
2018-10-21T00:38:22.673Z,99.99
2018-10-21T00:39:23.250Z,99.99
2018-10-21T00:40:23.828Z,99.99
2018-10-21T00:41:24.407Z,99.99
2018-10-21T00:42:24.972Z,99.99
2018-10-21T00:43:25.545Z,99.99
2018-10-21T00:44:26.120Z,99.99
2018-10-21T00:45:26.694Z,99.99
2018-10-21T00:46:27.318Z,99.99
2018-10-21T00:47:27.894Z,99.99
2018-10-21T00:48:28.517Z,99.99
2018-10-21T00:49:29.142Z,99.99
2018-10-21T00:50:29.719Z,99.99
2018-10-21T00:51:30.295Z,99.99
2018-10-21T00:52:30.870Z,99.99
2018-10-21T00:53:31.443Z,99.99
2018-10-21T00:54:32.018Z,99.99
2018-10-21T00:55:32.636Z,99.99
2018-10-21T00:56:33.219Z,99.99
2018-10-21T00:57:33.784Z,99.99
2018-10-21T00:58:34.360Z,99.99
2018-10-21T00:59:34.982Z,99.99
2018-10-21T01:00:35.551Z,99.99
2018-10-21T01:01:36.124Z,99.99
2018-10-21T01:02:36.699Z,99.99
2018-10-21T01:03:37.271Z,99.99
2018-10-21T01:04:37.845Z,99.99
2018-10-21T01:05:38.470Z,99.99
2018-10-21T01:06:39.093Z,99.99
2018-10-21T01:07:39.664Z,99.99
2018-10-21T01:08:40.310Z,99.99
2018-10-21T01:09:40.864Z,99.99
2018-10-21T01:10:41.438Z,99.99
2018-10-21T01:11:42.010Z,99.99
2018-10-21T01:12:42.584Z,99.99
2018-10-21T01:13:43.159Z,99.99
2018-10-21T01:15:28.037Z,99.99
2018-10-21T01:16:28.610Z,99.99
2018-10-21T01:17:29.184Z,99.99
2018-10-21T01:18:29.757Z,99.99
2018-10-21T01:19:30.334Z,99.99
2018-10-21T01:20:30.959Z,99.99
2018-10-21T01:21:31.525Z,99.99
2018-10-21T01:22:32.152Z,99.99
2018-10-21T01:23:32.722Z,99.99
2018-10-21T01:24:33.295Z,99.99
2018-10-21T01:25:33.922Z,99.99
2018-10-21T01:26:34.544Z,99.99
2018-10-21T01:27:35.123Z,99.99
2018-10-21T01:28:35.694Z,99.99
2018-10-21T01:29:36.268Z,99.99
2018-10-21T01:30:36.840Z,99.99
2018-10-21T01:31:37.415Z,99.99
2018-10-21T01:32:37.998Z,99.99
2018-10-21T01:33:38.562Z,99.99
2018-10-21T01:34:39.135Z,99.99
2018-10-21T01:35:39.710Z,99.99
2018-10-21T01:36:40.368Z,99.99
2018-10-21T01:37:40.910Z,99.99
2018-10-21T01:38:41.481Z,99.99
2018-10-21T01:39:42.056Z,99.99
2018-10-21T01:40:42.681Z,99.99
2018-10-21T01:41:43.255Z,99.99
2018-10-21T01:42:43.834Z,99.99
2018-10-21T01:43:44.447Z,99.99
2018-10-21T01:44:45.025Z,99.99
2018-10-21T01:45:45.594Z,99.99
2018-10-21T01:46:46.167Z,99.99
2018-10-21T01:47:46.741Z,99.99
2018-10-21T01:48:47.316Z,99.99
2018-10-21T01:49:47.894Z,99.99
2018-10-21T01:50:48.514Z,99.99
2018-10-21T01:51:49.088Z,99.99
2018-10-21T01:52:49.661Z,99.99
2018-10-21T01:53:50.240Z,99.99
2018-10-21T01:54:50.813Z,99.99
2018-10-21T01:55:51.436Z,99.99
2018-10-21T01:56:52.018Z,99.99
2018-10-21T01:57:52.626Z,99.99
2018-10-21T01:58:53.201Z,99.99
2018-10-21T01:59:53.778Z,99.99
2018-10-21T02:00:54.348Z,99.99
2018-10-21T02:01:54.973Z,99.99
2018-10-21T02:02:55.556Z,99.99
2018-10-21T02:03:56.166Z,99.99
2018-10-21T02:04:56.749Z,99.99
2018-10-21T02:05:57.407Z,99.99
2018-10-21T02:06:58.020Z,99.99
2018-10-21T02:07:58.593Z,99.99
2018-10-21T02:08:59.182Z,99.99
2018-10-21T02:09:59.784Z,99.99
2018-10-21T02:11:00.359Z,99.99
2018-10-21T02:12:00.932Z,99.99
2018-10-21T02:13:01.506Z,99.99
2018-10-21T02:14:02.967Z,99.99
2018-10-21T02:15:03.532Z,99.99
2018-10-21T02:16:04.118Z,99.99
2018-10-21T02:17:04.742Z,99.99
2018-10-21T02:18:06.127Z,99.99
2018-10-21T02:25:04.510Z,99.99
2018-10-21T02:26:05.087Z,99.99
2018-10-21T02:27:05.751Z,99.99
2018-10-21T02:28:06.342Z,99.99
2018-10-21T02:29:06.866Z,99.99
2018-10-21T02:30:07.440Z,99.99
2018-10-21T02:31:08.215Z,99.99
2018-10-21T02:32:08.788Z,99.99
2018-10-21T02:33:09.504Z,99.99
2018-10-21T02:34:09.988Z,99.99
2018-10-21T02:35:10.563Z,99.99
2018-10-21T02:36:11.176Z,99.99
2018-10-21T02:37:11.753Z,99.99
2018-10-21T02:38:12.376Z,99.99
2018-10-21T02:39:13.590Z,99.99
2018-10-21T02:40:14.123Z,99.99
2018-10-21T02:41:14.697Z,99.99
2018-10-21T02:42:15.271Z,99.99
2018-10-21T02:43:15.842Z,99.99
2018-10-21T02:44:16.469Z,99.99
2018-10-21T02:45:17.124Z,99.99
2018-10-21T02:48:23.144Z,99.99
2018-10-21T02:49:23.780Z,99.99
2018-10-21T02:50:24.356Z,99.99
2018-10-21T02:51:24.937Z,99.99
2018-10-21T02:52:25.519Z,99.99
2018-10-21T02:53:26.099Z,99.99
2018-10-21T02:54:26.680Z,99.99
2018-10-21T02:55:27.261Z,99.99
2018-10-21T02:56:27.842Z,99.99
2018-10-21T02:57:28.423Z,99.99
2018-10-21T02:58:29.004Z,99.99
2018-10-21T02:59:29.583Z,99.99
2018-10-21T03:00:30.213Z,99.99
2018-10-21T03:01:30.792Z,99.99
2018-10-21T03:03:50.657Z,99.99
2018-10-21T03:04:57.497Z,99.99
2018-10-21T03:05:58.079Z,99.99
2018-10-21T03:11:26.806Z,99.99
2018-10-21T03:13:29.011Z,99.99
2018-10-21T03:14:29.591Z,99.99
2018-10-21T03:16:14.636Z,99.99
2018-10-21T03:17:15.215Z,99.99
2018-10-21T03:18:15.873Z,99.99
2018-10-21T03:19:16.414Z,99.99
2018-10-21T03:20:36.297Z,99.99
2018-10-21T03:21:36.878Z,99.99
2018-10-21T03:22:37.513Z,99.99
2018-10-21T03:24:39.647Z,99.99
2018-10-21T03:25:40.222Z,99.99
2018-10-21T03:26:40.793Z,99.99
2018-10-21T03:27:41.362Z,99.99
2018-10-21T03:28:41.987Z,99.99
2018-10-21T03:29:42.602Z,99.99
2018-10-21T03:30:43.220Z,99.99
2018-10-21T03:31:43.790Z,99.99
2018-10-21T03:32:44.497Z,99.99
2018-10-21T03:33:45.074Z,99.99
2018-10-21T03:34:45.557Z,99.99
2018-10-21T03:35:46.130Z,99.99
2018-10-21T03:36:46.748Z,99.99
2018-10-21T03:38:31.617Z,99.99
2018-10-21T03:39:32.233Z,99.99
2018-10-21T03:40:32.763Z,99.99
2018-10-21T03:41:33.385Z,99.99
2018-10-21T03:42:33.957Z,99.99
2018-10-21T03:43:34.531Z,99.99
2018-10-21T03:44:35.103Z,99.99
2018-10-21T03:45:35.686Z,99.99
2018-10-21T03:46:36.253Z,99.99
2018-10-21T03:47:36.874Z,99.99
2018-10-21T03:48:37.499Z,99.99
2018-10-21T03:49:38.070Z,99.99
2018-10-21T03:50:38.645Z,99.99
2018-10-21T03:51:39.218Z,99.99
2018-10-21T03:52:39.790Z,99.99
2018-10-21T03:53:40.364Z,99.99
2018-10-21T03:54:40.937Z,99.99
2018-10-21T03:55:41.509Z,99.99
2018-10-21T03:56:42.086Z,99.99
2018-10-21T03:57:42.662Z,99.99
2018-10-21T03:58:43.236Z,99.99
2018-10-21T04:00:28.160Z,99.99
2018-10-21T04:01:28.777Z,99.99
2018-10-21T04:02:29.356Z,99.99
2018-10-21T04:03:29.975Z,99.99
2018-10-21T04:04:30.551Z,99.99
2018-10-21T04:05:31.124Z,99.99
2018-10-21T04:06:31.699Z,99.99
2018-10-21T04:07:32.272Z,99.99
2018-10-21T04:08:32.897Z,99.99
2018-10-21T04:09:33.473Z,99.99
2018-10-21T04:10:34.047Z,99.99
2018-10-21T04:11:34.627Z,99.99
2018-10-21T04:12:35.193Z,99.99
2018-10-21T04:13:35.766Z,99.99
2018-10-21T04:14:36.340Z,99.99
2018-10-21T04:15:36.961Z,99.99
2018-10-21T04:16:37.543Z,99.99
2018-10-21T04:17:38.152Z,99.99
2018-10-21T04:18:38.725Z,99.99
2018-10-21T04:19:39.348Z,99.99
2018-10-21T04:20:39.921Z,99.99
2018-10-21T04:22:24.795Z,99.99
2018-10-21T04:23:25.367Z,99.99
2018-10-21T04:24:25.943Z,99.99
2018-10-21T04:25:26.516Z,99.99
2018-10-21T04:26:27.090Z,99.99
2018-10-21T04:27:27.708Z,99.99
2018-10-21T04:28:28.288Z,99.99
2018-10-21T04:33:13.783Z,99.99
2018-10-21T04:34:14.424Z,99.99
2018-10-21T04:35:15.027Z,99.99
2018-10-21T04:36:15.554Z,99.99
2018-10-21T04:51:22.217Z,99.99
2018-10-21T04:52:22.790Z,99.99
2018-10-21T04:53:23.365Z,99.99
2018-10-21T04:54:23.947Z,99.99
2018-10-21T04:55:24.513Z,99.99
2018-10-21T04:56:25.091Z,99.99
2018-10-21T04:57:25.709Z,99.99
2018-10-21T04:58:26.333Z,99.99
2018-10-21T04:59:26.914Z,99.99
2018-10-21T05:00:27.487Z,99.99
2018-10-21T05:01:28.099Z,99.99
2018-10-21T05:02:28.671Z,99.99
2018-10-21T05:03:29.245Z,99.99
2018-10-21T05:04:29.819Z,99.99
2018-10-21T05:05:30.394Z,99.99
2018-10-21T05:06:30.969Z,99.99
2018-10-21T05:07:31.575Z,99.99
2018-10-21T05:08:32.120Z,99.99
2018-10-21T05:09:32.689Z,99.99
2018-10-21T05:10:33.262Z,99.99
2018-10-21T05:11:33.890Z,99.99
2018-10-21T05:13:18.802Z,99.99
2018-10-21T05:14:19.375Z,99.99
2018-10-21T05:15:20.028Z,99.99
2018-10-21T05:16:20.645Z,99.99
2018-10-21T05:17:21.334Z,99.99
2018-10-21T05:18:21.910Z,99.99
2018-10-21T05:19:22.483Z,99.99
2018-10-21T05:20:23.060Z,99.99
2018-10-21T05:21:23.631Z,99.99
2018-10-21T05:22:24.214Z,99.99
2018-10-21T05:23:24.780Z,99.99
2018-10-21T05:24:25.351Z,99.99
2018-10-21T05:25:25.931Z,99.99
2018-10-21T05:26:26.542Z,99.99
2018-10-21T05:27:27.118Z,99.99
2018-10-21T05:28:27.688Z,99.99
2018-10-21T05:29:28.261Z,99.99
2018-10-21T05:30:28.935Z,99.99
2018-10-21T05:31:29.510Z,99.99
2018-10-21T05:32:30.183Z,99.99
2018-10-21T05:33:30.857Z,99.99
2018-10-21T05:35:15.731Z,99.99
2018-10-21T05:36:16.315Z,99.99
2018-10-21T05:37:16.881Z,99.99
2018-10-21T05:38:17.496Z,99.99
2018-10-21T05:39:18.071Z,99.99
2018-10-21T05:40:18.703Z,99.99
2018-10-21T05:41:19.270Z,99.99
2018-10-21T05:42:19.834Z,99.99
2018-10-21T05:43:20.408Z,99.99
2018-10-21T05:44:20.983Z,99.99
2018-10-21T05:45:21.560Z,99.99
2018-10-21T05:46:22.129Z,99.99
2018-10-21T05:47:22.708Z,99.99
2018-10-21T05:48:23.277Z,99.99
2018-10-21T05:49:23.943Z,99.99
2018-10-21T05:50:24.575Z,99.99
2018-10-21T05:51:25.155Z,99.99
2018-10-21T05:52:25.739Z,99.99
2018-10-21T05:53:26.316Z,99.99
2018-10-21T06:10:44.839Z,99.99
2018-10-21T06:11:45.459Z,99.99
2018-10-21T06:12:46.088Z,99.99
2018-10-21T06:13:46.668Z,99.99
2018-10-21T06:17:08.160Z,99.99
2018-10-21T06:19:10.340Z,99.99
2018-10-21T06:20:10.914Z,99.99
2018-10-21T06:21:11.485Z,99.99
2018-10-21T06:22:12.191Z,99.99
2018-10-21T06:23:12.784Z,99.99
2018-10-21T06:24:13.369Z,99.99
2018-10-21T06:25:13.987Z,99.99
2018-10-21T06:26:14.569Z,99.99
2018-10-21T06:27:15.158Z,99.99
2018-10-21T06:28:15.727Z,99.99
2018-10-21T06:29:16.355Z,99.99
2018-10-21T06:30:16.985Z,99.99
2018-10-21T06:31:17.571Z,99.99
2018-10-21T06:32:18.184Z,99.99
2018-10-21T06:33:18.763Z,99.99
2018-10-21T06:34:19.340Z,99.99
2018-10-21T06:35:19.917Z,99.99
2018-10-21T06:36:20.495Z,99.99
2018-10-21T06:37:21.074Z,99.99
2018-10-21T06:39:06.181Z,99.99
2018-10-21T06:40:06.732Z,99.99
2018-10-21T06:41:07.363Z,99.99
2018-10-21T06:42:07.945Z,99.99
2018-10-21T06:43:08.525Z,99.99
2018-10-21T06:44:09.104Z,99.99
2018-10-21T06:45:09.728Z,99.99
2018-10-21T06:46:10.265Z,99.99
2018-10-21T06:47:10.840Z,99.99
2018-10-21T06:48:11.420Z,99.99
2018-10-21T06:49:12.022Z,99.99
2018-10-21T06:50:12.627Z,99.99
2018-10-21T06:51:13.389Z,99.99
2018-10-21T06:52:13.787Z,99.99
2018-10-21T06:53:14.414Z,99.99
2018-10-21T06:54:14.999Z,99.99
2018-10-21T06:55:15.573Z,99.99
2018-10-21T06:56:16.201Z,99.99
2018-10-21T06:57:16.930Z,99.99
2018-10-21T06:58:17.399Z,99.99
2018-10-21T06:59:17.978Z,99.99
2018-10-21T07:01:03.023Z,99.99
2018-10-21T07:02:03.642Z,99.99
2018-10-21T07:03:04.220Z,99.99
2018-10-21T07:04:04.808Z,99.99
2018-10-21T07:05:05.441Z,99.99
2018-10-21T07:06:05.967Z,99.99
2018-10-21T07:07:06.538Z,99.99
2018-10-21T07:08:07.117Z,99.99
2018-10-21T07:09:07.745Z,99.99
2018-10-21T07:10:08.394Z,99.99
2018-10-21T07:11:08.905Z,99.99
2018-10-21T07:12:09.490Z,99.99
2018-10-21T07:13:10.070Z,99.99
2018-10-21T07:14:10.639Z,99.99
2018-10-21T07:15:11.272Z,99.99
2018-10-21T07:16:11.907Z,99.99
2018-10-21T07:17:12.423Z,99.99
2018-10-21T07:18:12.998Z,99.99
2018-10-21T07:19:13.626Z,99.99
2018-10-21T07:20:14.208Z,99.99
2018-10-21T07:21:14.785Z,99.99
2018-10-21T07:22:59.829Z,99.99
2018-10-21T07:24:00.407Z,99.99
2018-10-21T07:25:00.986Z,99.99
2018-10-21T07:26:01.565Z,99.99
2018-10-21T07:27:02.194Z,99.99
2018-10-21T07:28:02.844Z,99.99
2018-10-21T07:29:03.360Z,99.99
2018-10-21T07:30:03.930Z,99.99
2018-10-21T07:31:04.507Z,99.99
2018-10-21T07:32:05.087Z,99.99
2018-10-21T07:33:05.666Z,99.99
2018-10-21T07:34:06.258Z,99.99
2018-10-21T07:35:06.823Z,99.99
2018-10-21T07:36:07.420Z,99.99
2018-10-21T07:37:08.039Z,99.99
2018-10-21T07:38:08.658Z,99.99
2018-10-21T07:39:09.237Z,99.99
2018-10-21T07:40:09.822Z,99.99
2018-10-21T07:41:10.393Z,99.99
2018-10-21T07:42:10.973Z,99.99
2018-10-21T07:43:11.601Z,99.99
2018-10-21T07:44:56.742Z,99.99
2018-10-21T07:45:57.379Z,99.99
2018-10-21T07:46:57.903Z,99.99
2018-10-21T07:47:58.483Z,99.99
2018-10-21T07:48:59.068Z,99.99
2018-10-21T07:49:59.640Z,99.99
2018-10-21T07:51:00.219Z,99.99
2018-10-21T07:52:00.854Z,99.99
2018-10-21T07:53:01.384Z,99.99
2018-10-21T07:54:01.963Z,99.99
2018-10-21T07:55:02.592Z,99.99
2018-10-21T07:56:03.307Z,99.99
2018-10-21T07:57:03.889Z,99.99
2018-10-21T07:58:04.515Z,99.99
2018-10-21T07:59:05.051Z,99.99
2018-10-21T08:00:05.626Z,99.99
2018-10-21T08:01:06.314Z,99.99
2018-10-21T08:02:06.843Z,99.99
2018-10-21T08:03:07.453Z,99.99
2018-10-21T08:04:08.048Z,99.99
2018-10-21T08:05:08.616Z,99.99
2018-10-21T08:06:53.650Z,99.99
2018-10-21T08:07:54.228Z,99.99
2018-10-21T08:08:54.807Z,99.99
2018-10-21T08:09:55.392Z,99.99
2018-10-21T08:10:55.966Z,99.99
2018-10-21T08:11:56.545Z,99.99
2018-10-21T08:12:57.175Z,99.99
2018-10-21T08:13:57.752Z,99.99
2018-10-21T08:14:58.395Z,99.99
2018-10-21T08:15:58.912Z,99.99
2018-10-21T08:16:59.487Z,99.99
2018-10-21T08:18:00.065Z,99.99
2018-10-21T08:19:00.645Z,99.99
2018-10-21T08:20:01.223Z,99.99
2018-10-21T08:21:01.898Z,99.99
2018-10-21T08:22:02.507Z,99.99
2018-10-21T08:23:03.057Z,99.99
2018-10-21T08:24:03.687Z,99.99
2018-10-21T08:25:04.263Z,99.99
2018-10-21T08:26:04.841Z,99.99
2018-10-21T08:27:05.436Z,99.99
2018-10-21T08:28:50.562Z,99.99
2018-10-21T08:29:51.142Z,99.99
2018-10-21T08:30:51.722Z,99.99
2018-10-21T08:31:52.303Z,99.99
2018-10-21T08:32:52.882Z,99.99
2018-10-21T08:33:53.544Z,99.99
2018-10-21T08:34:54.038Z,99.99
2018-10-21T08:35:54.621Z,99.99
2018-10-21T08:36:55.194Z,99.99
2018-10-21T08:37:55.774Z,99.99
2018-10-21T08:38:56.356Z,99.99
2018-10-21T08:39:56.991Z,99.99
2018-10-21T08:40:57.711Z,99.99
2018-10-21T08:41:58.289Z,99.99
2018-10-21T08:42:58.866Z,99.99
2018-10-21T08:43:59.442Z,99.99
2018-10-21T08:46:01.648Z,99.99
2018-10-21T08:47:02.194Z,99.99
2018-10-21T08:48:16.720Z,99.99
2018-10-21T08:51:34.286Z,99.99
2018-10-21T08:52:34.872Z,99.99
2018-10-21T08:53:35.490Z,99.99
2018-10-21T08:54:36.069Z,99.99
2018-10-21T08:55:36.648Z,99.99
2018-10-21T08:56:37.227Z,99.99
2018-10-21T08:57:37.815Z,99.99
2018-10-21T08:58:38.391Z,99.99
2018-10-21T08:59:39.061Z,99.99
2018-10-21T09:00:39.688Z,99.99
2018-10-21T09:01:40.309Z,99.99
2018-10-21T09:02:40.888Z,99.99
2018-10-21T09:03:41.467Z,99.99
2018-10-21T09:04:42.050Z,99.99
2018-10-21T09:05:42.626Z,99.99
2018-10-21T09:06:43.205Z,99.99
2018-10-21T09:07:43.831Z,99.99
2018-10-21T09:08:44.408Z,99.99
2018-10-21T09:09:44.988Z,99.99
2018-10-21T09:11:30.028Z,99.99
2018-10-21T09:12:30.606Z,99.99
2018-10-21T09:13:31.184Z,99.99
2018-10-21T09:14:31.822Z,99.99
2018-10-21T09:15:32.473Z,99.99
2018-10-21T09:22:24.845Z,99.99
2018-10-21T09:23:25.617Z,99.99
2018-10-21T09:24:26.238Z,99.99
2018-10-21T09:25:26.860Z,99.99
2018-10-21T09:26:27.431Z,99.99
2018-10-21T09:27:28.004Z,99.99
2018-10-21T09:28:50.301Z,99.99
2018-10-21T09:32:47.836Z,99.99
2018-10-21T09:33:48.404Z,99.99
2018-10-21T09:34:49.028Z,99.99
2018-10-21T09:35:49.601Z,99.99
2018-10-21T09:36:50.177Z,99.99
2018-10-21T09:37:50.762Z,99.99
2018-10-21T09:38:51.330Z,99.99
2018-10-21T09:39:51.908Z,99.99
2018-10-21T09:40:52.535Z,99.99
2018-10-21T09:48:22.363Z,99.99
2018-10-21T09:49:22.942Z,99.99
2018-10-21T09:50:37.488Z,99.99
2018-10-21T09:51:38.108Z,99.99
2018-10-21T09:52:38.727Z,99.99
2018-10-21T09:53:39.345Z,99.99
2018-10-21T09:54:39.925Z,99.99
2018-10-21T09:55:40.507Z,99.99
2018-10-21T09:56:41.128Z,99.99
2018-10-21T09:57:41.706Z,99.99
2018-10-21T09:58:42.366Z,99.99
2018-10-21T09:59:42.902Z,99.99
2018-10-21T10:00:43.491Z,99.99
2018-10-21T10:01:44.061Z,99.99
2018-10-21T10:02:44.645Z,99.99
2018-10-21T10:03:45.338Z,99.99
2018-10-21T10:04:45.945Z,99.99
2018-10-21T10:05:46.524Z,99.99
2018-10-21T10:06:47.132Z,99.99
2018-10-21T10:07:47.731Z,99.99
2018-10-21T10:08:48.371Z,99.99
2018-10-21T10:09:48.926Z,99.99
2018-10-21T10:10:49.508Z,99.99
2018-10-21T10:12:34.390Z,99.99
2018-10-21T10:13:34.969Z,99.99
2018-10-21T10:14:35.550Z,99.99
2018-10-21T10:15:36.180Z,99.99
2018-10-21T10:16:36.761Z,99.99
2018-10-21T10:17:37.404Z,99.99
2018-10-21T10:18:37.928Z,99.99
2018-10-21T10:19:38.506Z,99.99
2018-10-21T10:20:39.087Z,99.99
2018-10-21T10:21:39.669Z,99.99
2018-10-21T10:23:41.932Z,99.99
2018-10-21T10:24:43.763Z,99.99
2018-10-21T10:26:45.979Z,99.99
2018-10-21T10:27:46.566Z,99.99
2018-10-21T10:28:47.154Z,99.99
2018-10-21T10:29:47.904Z,99.99
2018-10-21T10:30:48.333Z,99.99
2018-10-21T10:31:48.916Z,99.99
2018-10-21T10:32:49.503Z,99.99
2018-10-21T10:34:34.558Z,99.99
2018-10-21T10:35:35.145Z,99.99
2018-10-21T10:36:35.734Z,99.84
2018-10-21T10:37:36.323Z,99.99
2018-10-21T10:38:36.910Z,99.99
2018-10-21T10:39:37.495Z,99.99
2018-10-21T10:40:38.133Z,99.94
2018-10-21T10:41:38.925Z,99.88
2018-10-21T10:42:39.458Z,99.99
2018-10-21T10:43:40.046Z,99.99
2018-10-21T10:44:40.682Z,99.99
2018-10-21T10:45:41.267Z,99.99
2018-10-21T10:46:41.853Z,99.99
2018-10-21T10:47:42.442Z,99.99
2018-10-21T10:48:43.027Z,99.99
2018-10-21T10:49:43.613Z,99.99
2018-10-21T10:50:44.201Z,99.74
2018-10-21T10:51:44.787Z,99.07
2018-10-21T10:52:45.373Z,99.16
2018-10-21T10:53:45.957Z,98.34
2018-10-21T10:54:46.544Z,96.94
2018-10-21T10:56:31.596Z,99.07
2018-10-21T10:57:32.184Z,99.36
2018-10-21T10:58:32.771Z,99.79
2018-10-21T10:59:33.452Z,99.84
2018-10-21T11:00:34.045Z,99.26
2018-10-21T11:01:34.634Z,99.16
2018-10-21T11:02:35.221Z,99.45
2018-10-21T11:03:35.807Z,98.39
2018-10-21T11:04:36.446Z,98.78
2018-10-21T11:05:37.036Z,98.10
2018-10-21T11:06:37.622Z,98.30
2018-10-21T11:07:38.207Z,98.39
2018-10-21T11:08:38.795Z,98.39
2018-10-21T11:09:39.381Z,97.52
2018-10-21T11:10:39.966Z,98.20
2018-10-21T11:11:40.552Z,97.28
2018-10-21T11:12:41.143Z,97.38
2018-10-21T11:13:41.725Z,97.57
2018-10-21T11:14:42.399Z,97.38
2018-10-21T11:15:43.034Z,97.96
2018-10-21T11:16:43.622Z,97.62
2018-10-21T11:18:28.684Z,97.33
2018-10-21T11:19:29.306Z,97.62
2018-10-21T11:20:29.893Z,97.42
2018-10-21T11:21:30.483Z,97.57
2018-10-21T11:22:31.173Z,97.62
2018-10-21T11:23:31.747Z,97.62
2018-10-21T11:24:32.335Z,97.72
2018-10-21T11:25:32.927Z,98.00
2018-10-21T11:26:33.508Z,97.62
2018-10-21T11:27:34.096Z,97.42
2018-10-21T11:28:34.684Z,97.42
2018-10-21T11:29:35.319Z,97.33
2018-10-21T11:30:36.005Z,98.30
2018-10-21T11:31:36.691Z,97.91
2018-10-21T11:32:37.379Z,97.81
2018-10-21T11:33:37.963Z,98.20
2018-10-21T11:34:38.549Z,98.00
2018-10-21T11:35:39.187Z,98.20
2018-10-21T11:36:39.835Z,98.20
2018-10-21T11:37:40.468Z,98.10
2018-10-21T11:38:40.989Z,98.39
2018-10-21T11:40:26.041Z,98.39
2018-10-21T11:41:26.667Z,97.72
2018-10-21T11:42:27.254Z,97.62
2018-10-21T11:43:27.846Z,97.62
2018-10-21T11:44:28.430Z,97.52
2018-10-21T11:45:29.051Z,97.33
2018-10-21T11:46:29.654Z,97.24
2018-10-21T11:47:30.230Z,97.42
2018-10-21T11:48:30.866Z,97.62
2018-10-21T11:49:31.453Z,97.14
2018-10-21T11:50:32.090Z,97.14
2018-10-21T11:51:32.677Z,97.42
2018-10-21T11:52:33.288Z,97.24
2018-10-21T11:53:33.849Z,97.62
2018-10-21T11:54:34.486Z,97.33
2018-10-21T11:55:35.071Z,97.42
2018-10-21T11:56:35.658Z,97.52
2018-10-21T11:57:36.243Z,98.30
2018-10-21T11:58:36.879Z,98.20
2018-10-21T11:59:37.466Z,97.52
2018-10-21T12:00:38.051Z,97.42
2018-10-21T12:02:23.156Z,97.57
2018-10-21T12:03:23.785Z,97.62
2018-10-21T12:04:24.372Z,97.67
2018-10-21T12:05:24.960Z,97.57
2018-10-21T12:06:25.546Z,97.28
2018-10-21T12:07:26.132Z,97.09
2018-10-21T12:08:26.770Z,97.19
2018-10-21T12:09:27.357Z,97.28
2018-10-21T12:10:27.945Z,97.19
2018-10-21T12:11:28.542Z,96.70
2018-10-21T12:12:29.170Z,96.70
2018-10-21T12:13:29.755Z,96.61
2018-10-21T12:14:30.344Z,96.31
2018-10-21T12:15:30.929Z,96.51
2018-10-21T12:16:31.664Z,96.31
2018-10-21T12:17:32.250Z,95.83
2018-10-21T12:18:32.888Z,95.78
2018-10-21T12:19:33.476Z,94.53
2018-10-21T12:20:34.061Z,95.01
2018-10-21T12:21:34.651Z,94.62
2018-10-21T12:22:35.310Z,95.30
2018-10-21T12:24:20.328Z,94.82
2018-10-21T12:25:21.007Z,95.10
2018-10-21T12:26:21.503Z,95.49
2018-10-21T12:27:22.139Z,95.64
2018-10-21T12:28:22.729Z,95.73
2018-10-21T12:29:23.364Z,96.31
2018-10-21T12:30:23.951Z,96.51
2018-10-21T12:31:24.546Z,96.22
2018-10-21T12:32:25.137Z,96.70
2018-10-21T12:33:25.712Z,96.61
2018-10-21T12:34:26.353Z,96.61
2018-10-21T12:35:26.939Z,96.80
2018-10-21T12:36:27.521Z,96.89
2018-10-21T12:37:28.109Z,96.61
2018-10-21T12:38:28.697Z,96.31
2018-10-21T12:39:29.280Z,96.51
2018-10-21T12:40:29.867Z,96.12
2018-10-21T12:41:30.455Z,95.93
2018-10-21T12:42:31.080Z,95.93
2018-10-21T12:43:31.672Z,96.22
2018-10-21T12:44:32.255Z,96.41
2018-10-21T12:46:17.385Z,96.70
2018-10-21T12:47:18.019Z,96.80
2018-10-21T12:48:18.814Z,96.51
2018-10-21T12:49:19.491Z,97.38
2018-10-21T12:50:19.986Z,97.09
2018-10-21T12:51:20.624Z,96.99
2018-10-21T12:52:21.211Z,97.33
2018-10-21T12:53:21.799Z,97.24
2018-10-21T12:54:22.396Z,97.42
2018-10-21T12:55:22.979Z,97.24
2018-10-21T12:56:23.602Z,97.42
2018-10-21T12:57:24.237Z,97.42
2018-10-21T12:58:24.831Z,97.62
2018-10-21T12:59:25.455Z,97.38
2018-10-21T13:00:26.039Z,97.77
2018-10-21T13:01:26.625Z,97.57
2018-10-21T13:02:27.239Z,97.28
2018-10-21T13:03:27.809Z,97.19
2018-10-21T13:04:28.533Z,97.28
2018-10-21T13:05:29.127Z,97.62
2018-10-21T13:06:29.705Z,97.62
2018-10-21T13:08:14.804Z,97.14
2018-10-21T13:09:15.390Z,97.24
2018-10-21T13:10:16.060Z,97.62
2018-10-21T13:11:16.605Z,98.39
2018-10-21T13:12:17.191Z,98.20
2018-10-21T13:13:17.870Z,98.49
2018-10-21T13:14:18.412Z,98.68
2018-10-21T13:15:19.003Z,98.20
2018-10-21T13:16:19.631Z,99.36
2018-10-21T13:17:20.262Z,99.07
2018-10-21T13:18:20.841Z,99.11
2018-10-21T13:19:21.425Z,99.11
2018-10-21T13:20:22.009Z,98.83
2018-10-21T13:21:22.647Z,99.31
2018-10-21T13:22:23.273Z,99.02
2018-10-21T13:23:23.863Z,99.31
2018-10-21T13:24:24.441Z,99.11
2018-10-21T13:25:25.027Z,98.83
2018-10-21T13:26:25.610Z,99.16
2018-10-21T13:27:26.224Z,98.78
2018-10-21T13:28:26.993Z,98.68
2018-10-21T13:30:11.974Z,98.88
2018-10-21T13:31:12.606Z,99.36
2018-10-21T13:32:13.147Z,99.45
2018-10-21T13:33:13.733Z,98.83
2018-10-21T13:34:14.369Z,99.11
2018-10-21T13:35:14.906Z,98.83
2018-10-21T13:36:15.584Z,99.98
2018-10-21T13:37:16.250Z,99.60
2018-10-21T13:38:16.752Z,99.69
2018-10-21T13:39:17.339Z,99.99
2018-10-21T13:40:18.058Z,99.98
2018-10-21T13:41:18.508Z,99.98
2018-10-21T13:42:19.143Z,99.98
2018-10-21T13:43:19.735Z,99.99
2018-10-21T13:44:20.312Z,99.99
2018-10-21T13:45:20.895Z,99.99
2018-10-21T13:46:21.764Z,99.99
2018-10-21T13:47:22.315Z,99.99
2018-10-21T13:48:22.902Z,99.99
2018-10-21T13:49:23.526Z,99.99
2018-10-21T13:50:24.110Z,99.99
2018-10-21T13:52:09.290Z,99.99
2018-10-21T13:53:09.924Z,99.99
2018-10-21T13:54:10.334Z,99.99
2018-10-21T13:55:10.986Z,99.99
2018-10-21T13:56:11.508Z,99.99
2018-10-21T13:57:12.140Z,99.99
2018-10-21T13:58:12.809Z,99.99
2018-10-21T13:59:13.612Z,99.99
2018-10-21T14:00:13.986Z,99.99
2018-10-21T14:01:14.586Z,99.99
2018-10-21T14:02:15.158Z,99.99
2018-10-21T14:03:15.791Z,99.99
2018-10-21T14:04:16.469Z,99.99
2018-10-21T14:05:17.047Z,99.99
2018-10-21T14:06:17.632Z,99.99
2018-10-21T14:07:18.246Z,99.99
2018-10-21T14:08:18.842Z,99.99
2018-10-21T14:09:19.465Z,99.99
2018-10-21T14:10:20.138Z,99.99
2018-10-21T14:11:20.635Z,99.99
2018-10-21T14:12:21.265Z,99.99
2018-10-21T14:14:06.311Z,99.99
2018-10-21T14:15:06.990Z,99.99
2018-10-21T14:16:07.655Z,99.99
2018-10-21T14:17:08.116Z,99.99
2018-10-21T14:18:08.702Z,99.98
2018-10-21T14:19:09.288Z,99.99
2018-10-21T14:20:09.922Z,99.99
2018-10-21T14:21:10.562Z,99.99
2018-10-21T14:22:11.216Z,99.99
2018-10-21T14:23:11.729Z,99.99
2018-10-21T14:24:12.396Z,99.98
2018-10-21T14:25:12.976Z,99.99
2018-10-21T14:26:13.482Z,99.99
2018-10-21T14:27:14.067Z,99.99
2018-10-21T14:28:14.697Z,99.99
2018-10-21T14:29:15.279Z,99.99
2018-10-21T14:30:15.974Z,99.99
2018-10-21T14:31:16.499Z,99.98
2018-10-21T14:32:17.122Z,99.99
2018-10-21T14:33:17.763Z,99.79
2018-10-21T14:34:18.295Z,99.16